Time;durP1;ratioP1;P1;durP2;ratioP2;P2;SDS_P1;SDS_P2;PMS_P1;PMS_P2;Temp;Humidity;BMP_temperature;BMP_pressure;BME280_temperature;BME280_humidity;BME280_pressure;Samples;Min_cycle;Max_cycle;Signal;HPM_P1;HPM_P2
2022/09/09 00:02:01;;;;;;;1.90;1.20;;;;;;;14.21;100.00;96013.34;5035219;28;20201;-71
2022/09/09 00:04:29;;;;;;;3.60;1.42;;;;;;;14.31;100.00;96011.09;5035789;28;20216;-71
2022/09/09 00:07:08;;;;;;;2.67;1.42;;;;;;;14.28;100.00;96008.84;5035840;28;20229;-71
2022/09/09 00:09:44;;;;;;;5.20;1.35;;;;;;;14.33;100.00;96011.72;5035119;28;20197;-71
2022/09/09 00:12:13;;;;;;;3.88;1.60;;;;;;;14.30;100.00;96013.94;5036608;28;20298;-71
2022/09/09 00:14:48;;;;;;;4.47;1.27;;;;;;;14.34;100.00;96015.97;5039290;28;20620;-71
2022/09/09 00:17:27;;;;;;;4.63;1.25;;;;;;;14.33;100.00;96011.72;5039490;28;20228;-71
2022/09/09 00:20:00;;;;;;;3.10;1.10;;;;;;;14.38;100.00;96014.53;5040530;28;20211;-71
2022/09/09 00:22:29;;;;;;;3.58;1.83;;;;;;;14.38;100.00;96019.84;5038814;28;20290;-71
2022/09/09 00:24:58;;;;;;;2.90;1.52;;;;;;;14.42;100.00;96012.28;5036151;28;20315;-71
2022/09/09 00:27:31;;;;;;;2.85;1.58;;;;;;;14.47;100.00;96017.81;5039519;28;20227;-71
2022/09/09 00:30:02;;;;;;;3.17;1.70;;;;;;;14.53;100.00;96009.03;5039115;28;20609;-71
2022/09/09 00:32:31;;;;;;;4.65;1.83;;;;;;;14.56;100.00;96003.31;5037962;28;20600;-71
2022/09/09 00:35:02;;;;;;;2.50;1.92;;;;;;;14.63;100.00;96005.72;5039130;28;20205;-71
2022/09/09 00:37:31;;;;;;;4.93;1.63;;;;;;;14.66;100.00;96002.69;5038952;28;20705;-71
2022/09/09 00:40:02;;;;;;;4.60;1.83;;;;;;;14.70;100.00;96006.56;5038587;28;20295;-71
2022/09/09 00:42:41;;;;;;;4.60;2.35;;;;;;;14.84;100.00;96007.31;5037946;28;20378;-71
2022/09/09 00:45:26;;;;;;;5.22;1.90;;;;;;;14.88;100.00;96000.56;5038767;28;20200;-71
2022/09/09 00:47:56;;;;;;;3.10;1.88;;;;;;;14.88;100.00;96006.72;5036162;28;20278;-71
2022/09/09 00:50:44;;;;;;;6.45;2.13;;;;;;;14.92;100.00;96010.56;5039053;28;20197;-71
2022/09/09 00:53:25;;;;;;;3.03;1.48;;;;;;;14.79;100.00;96000.00;5038126;28;20673;-71
2022/09/09 00:55:57;;;;;;;3.25;1.45;;;;;;;14.67;100.00;96004.28;5038399;28;20208;-72
2022/09/09 00:58:23;;;;;;;1.65;1.25;;;;;;;14.47;100.00;95993.94;5038810;28;20209;-71
2022/09/09 01:00:55;;;;;;;3.25;1.20;;;;;;;14.44;100.00;95999.66;5039088;28;20216;-71
2022/09/09 01:03:34;;;;;;;7.55;1.42;;;;;;;14.43;100.00;96003.34;5037264;28;20320;-71
2022/09/09 01:06:13;;;;;;;1.70;1.15;;;;;;;14.45;100.00;96014.56;5038637;28;20205;-71
2022/09/09 01:09:12;;;;;;;1.83;1.20;;;;;;;14.43;100.00;96012.09;5038616;28;20201;-71
2022/09/09 01:11:49;;;;;;;2.47;1.35;;;;;;;14.35;100.00;96008.84;5034061;28;20304;-71
2022/09/09 01:14:30;;;;;;;1.75;1.17;;;;;;;14.22;100.00;96009.66;5037432;28;20299;-71
2022/09/09 01:17:02;;;;;;;5.88;1.75;;;;;;;14.16;100.00;95996.41;5039062;28;20232;-71
2022/09/09 01:19:46;;;;;;;3.05;1.50;;;;;;;14.26;100.00;95999.47;5038009;28;21092;-71
2022/09/09 01:22:23;;;;;;;3.72;1.70;;;;;;;14.28;100.00;95992.97;5038134;28;20208;-71
2022/09/09 01:25:10;;;;;;;4.43;1.77;;;;;;;14.31;100.00;95986.44;5033840;28;20232;-71
2022/09/09 01:27:40;;;;;;;3.50;1.88;;;;;;;14.33;100.00;95987.84;5037850;28;20233;-71
2022/09/09 01:30:10;;;;;;;2.75;1.63;;;;;;;14.30;100.00;95990.91;5038544;28;20213;-71
2022/09/09 01:32:43;;;;;;;4.43;1.83;;;;;;;14.30;100.00;95980.28;5037861;28;20799;-71
2022/09/09 01:35:13;;;;;;;2.03;1.60;;;;;;;14.26;100.00;95988.88;5037513;28;20245;-71
2022/09/09 01:37:40;;;;;;;2.97;1.45;;;;;;;14.16;100.00;95988.47;5037494;28;20908;-71
2022/09/09 01:40:08;;;;;;;4.18;1.20;;;;;;;14.22;100.00;95982.38;5037930;28;20228;-71
2022/09/09 01:42:34;;;;;;;1.50;1.40;;;;;;;14.16;100.00;95986.63;5036738;28;20224;-71
2022/09/09 01:45:02;;;;;;;5.10;1.67;;;;;;;14.25;100.00;95987.25;5037929;28;20257;-71
2022/09/09 01:47:29;;;;;;;2.42;1.55;;;;;;;14.15;100.00;95986.84;5037761;28;20291;-71
2022/09/09 01:49:55;;;;;;;3.20;1.67;;;;;;;14.16;100.00;95983.16;5037351;28;20216;-71
2022/09/09 01:52:22;;;;;;;9.88;1.60;;;;;;;14.26;100.00;95983.59;5037429;28;20920;-71
2022/09/09 01:54:49;;;;;;;5.50;1.70;;;;;;;14.16;100.00;95989.28;5037777;28;20218;-71
2022/09/09 01:57:22;;;;;;;2.70;1.73;;;;;;;14.19;100.00;95994.19;5037380;28;20241;-71
2022/09/09 02:00:06;;;;;;;7.82;1.85;;;;;;;14.23;100.00;95983.97;5037027;28;20207;-71
2022/09/09 02:02:37;;;;;;;5.57;1.33;;;;;;;14.19;100.00;95990.69;5036895;28;20622;-71
2022/09/09 02:05:12;;;;;;;2.70;1.70;;;;;;;14.09;100.00;95983.19;5037223;28;20251;-71
2022/09/09 02:07:41;;;;;;;4.28;1.88;;;;;;;14.13;100.00;95978.28;5037338;28;20715;-71
2022/09/09 02:10:13;;;;;;;3.47;1.55;;;;;;;14.02;100.00;95976.22;5036931;28;20210;-71
2022/09/09 02:12:44;;;;;;;2.42;1.40;;;;;;;13.94;100.00;95975.59;5036740;28;20205;-71
2022/09/09 02:15:22;;;;;;;5.00;1.73;;;;;;;14.02;100.00;95976.22;5037041;28;20208;-71
2022/09/09 02:17:52;;;;;;;3.80;1.58;;;;;;;13.90;100.00;95974.38;5037159;28;20239;-71
2022/09/09 02:20:20;;;;;;;3.00;1.75;;;;;;;13.82;100.00;95972.72;5036598;28;20213;-71
2022/09/09 02:22:51;;;;;;;2.47;1.63;;;;;;;13.89;100.00;95976.22;5036478;28;20201;-71
2022/09/09 02:25:20;;;;;;;7.07;1.70;;;;;;;13.95;100.00;95969.28;5032820;28;20232;-71
2022/09/09 02:27:50;;;;;;;2.70;1.30;;;;;;;13.98;100.00;95969.69;5033001;28;20229;-71
2022/09/09 02:30:19;;;;;;;2.35;1.30;;;;;;;13.88;100.00;95971.13;5036305;28;20205;-71
2022/09/09 02:32:47;;;;;;;3.45;1.55;;;;;;;13.49;100.00;95958.66;5036163;28;20208;-71
2022/09/09 02:35:17;;;;;;;3.38;1.50;;;;;;;13.45;100.00;95961.91;5036734;28;20204;-71
2022/09/09 02:37:46;;;;;;;2.13;1.13;;;;;;;13.29;100.00;95961.44;5036951;28;20232;-71
2022/09/09 02:40:16;;;;;;;2.25;1.60;;;;;;;13.38;100.00;95967.19;5036616;28;20205;-71
2022/09/09 02:42:43;;;;;;;2.55;1.10;;;;;;;13.35;100.00;95966.75;5035471;28;20201;-71
2022/09/09 02:45:13;;;;;;;2.30;1.52;;;;;;;13.44;100.00;95960.25;5037691;28;20732;-71
2022/09/09 02:47:49;;;;;;;1.33;1.13;;;;;;;13.52;100.00;95970.69;5036607;28;20708;-71
2022/09/09 02:50:21;;;;;;;5.15;1.20;;;;;;;13.57;100.00;95971.69;5035994;28;20205;-71
2022/09/09 02:53:07;;;;;;;1.50;1.38;;;;;;;13.67;100.00;95972.13;5036210;28;20200;-71
2022/09/09 02:55:40;;;;;;;1.23;1.00;;;;;;;13.62;100.00;95974.56;5036479;28;20204;-71
2022/09/09 02:58:11;;;;;;;1.55;1.27;;;;;;;13.45;100.00;95970.69;5036084;28;20286;-71
2022/09/09 03:00:39;;;;;;;2.50;1.25;;;;;;;13.43;100.00;95971.88;5037195;28;20200;-71
2022/09/09 03:03:08;;;;;;;2.67;1.40;;;;;;;13.43;100.00;95975.34;5035399;28;20205;-71
2022/09/09 03:05:35;;;;;;;3.30;1.60;;;;;;;13.37;100.00;95980.63;5036370;28;20731;-71
2022/09/09 03:08:03;;;;;;;4.65;1.60;;;;;;;13.37;100.00;95985.91;5035963;28;21042;-71
2022/09/09 03:10:29;;;;;;;1.58;1.38;;;;;;;13.40;100.00;95977.56;5036410;28;20216;-71
2022/09/09 03:12:56;;;;;;;4.45;1.15;;;;;;;13.31;100.00;95976.13;5035340;28;20201;-71
2022/09/09 03:15:22;;;;;;;2.45;1.30;;;;;;;13.28;100.00;95981.81;5035508;28;20193;-71
2022/09/09 03:17:49;;;;;;;3.42;1.60;;;;;;;13.33;100.00;95989.16;5036313;28;20256;-71
2022/09/09 03:20:17;;;;;;;2.90;2.28;;;;;;;13.30;100.00;95985.09;5036428;28;20205;-71
2022/09/09 03:22:44;;;;;;;2.08;1.48;;;;;;;13.33;100.00;95981.19;5035509;28;20201;-71
2022/09/09 03:25:11;;;;;;;2.10;1.60;;;;;;;13.33;100.00;95981.19;5033464;28;20232;-71
2022/09/09 03:27:37;;;;;;;3.60;1.60;;;;;;;13.30;100.00;95989.56;5035916;28;21092;-71
2022/09/09 03:30:05;;;;;;;2.38;1.77;;;;;;;13.38;100.00;95992.00;5036574;28;20208;-71
2022/09/09 03:32:32;;;;;;;2.53;1.88;;;;;;;13.52;100.00;95999.81;5035675;28;20779;-71
2022/09/09 03:34:58;;;;;;;3.80;1.70;;;;;;;13.57;100.00;95992.88;5036307;28;20197;-71
2022/09/09 03:37:26;;;;;;;2.58;1.70;;;;;;;13.70;100.00;95997.41;5035930;28;20217;-71
2022/09/09 03:39:54;;;;;;;5.10;1.73;;;;;;;13.60;100.00;95991.66;5036525;28;20232;-71
2022/09/09 03:42:21;;;;;;;2.22;1.55;;;;;;;13.63;100.00;95999.19;5035279;28;20213;-71
2022/09/09 03:44:49;;;;;;;3.42;1.85;;;;;;;13.66;100.00;95980.28;5035907;28;20221;-71
2022/09/09 03:47:17;;;;;;;2.60;1.90;;;;;;;13.78;100.00;95979.47;5036909;28;20217;-71
2022/09/09 03:49:43;;;;;;;4.15;2.15;;;;;;;13.72;100.00;95980.28;5040061;28;20213;-71
2022/09/09 03:52:10;;;;;;;4.63;2.35;;;;;;;13.79;100.00;95975.78;5039794;28;20208;-71
2022/09/09 03:54:39;;;;;;;3.58;2.20;;;;;;;13.87;100.00;95982.72;5039465;28;20823;-71
2022/09/09 03:57:06;;;;;;;4.82;1.98;;;;;;;13.87;100.00;95974.78;5039441;28;20233;-71
2022/09/09 03:59:32;;;;;;;9.07;2.00;;;;;;;13.85;100.00;95977.63;5039998;28;20324;-71
2022/09/09 04:01:59;;;;;;;3.85;1.80;;;;;;;13.98;100.00;95975.78;5039701;28;20216;-71
2022/09/09 04:04:25;;;;;;;4.22;1.90;;;;;;;13.98;100.00;95975.00;5039099;28;20221;-71
2022/09/09 04:06:52;;;;;;;5.18;2.05;;;;;;;14.03;100.00;95978.66;5040008;28;20735;-71
2022/09/09 04:09:19;;;;;;;3.58;2.05;;;;;;;14.05;100.00;95975.78;5039285;28;20256;-71
2022/09/09 04:11:47;;;;;;;2.38;1.85;;;;;;;14.07;100.00;95974.56;5039245;28;20723;-71
2022/09/09 04:14:13;;;;;;;3.65;2.22;;;;;;;14.09;100.00;95979.69;5039362;28;20205;-71
2022/09/09 04:16:44;;;;;;;4.30;2.10;;;;;;;14.15;100.00;95989.50;5039612;28;20260;-71
2022/09/09 04:19:12;;;;;;;3.95;2.10;;;;;;;14.12;100.00;95980.09;5039219;28;20220;-72
2022/09/09 04:21:40;;;;;;;8.55;2.90;;;;;;;14.27;100.00;95987.88;5039361;28;20692;-71
2022/09/09 04:24:07;;;;;;;5.15;2.75;;;;;;;14.35;100.00;95977.03;5036379;28;20261;-72
2022/09/09 04:26:34;;;;;;;8.07;2.80;;;;;;;14.30;100.00;95968.91;5039676;28;20213;-71
2022/09/09 04:29:02;;;;;;;4.95;2.70;;;;;;;14.22;100.00;95980.50;5039369;28;20205;-72
2022/09/09 04:31:28;;;;;;;6.57;2.88;;;;;;;14.24;100.00;95980.31;5039620;28;20208;-72
2022/09/09 04:33:55;;;;;;;4.53;2.70;;;;;;;14.31;100.00;95986.44;5038566;28;20201;-71
2022/09/09 04:36:22;;;;;;;7.20;3.28;;;;;;;14.36;100.00;95976.03;5038559;28;20217;-72
2022/09/09 04:38:49;;;;;;;4.50;2.75;;;;;;;14.39;100.00;95983.56;5039097;28;20217;-71
2022/09/09 04:41:17;;;;;;;10.63;2.67;;;;;;;14.38;100.00;95995.97;5038961;28;20259;-71
2022/09/09 04:43:44;;;;;;;5.55;2.53;;;;;;;14.38;100.00;95995.19;5038247;28;20652;-71
2022/09/09 04:46:12;;;;;;;5.45;2.83;;;;;;;14.51;100.00;95992.50;5038689;28;20209;-71
2022/09/09 04:48:39;;;;;;;8.85;3.00;;;;;;;14.46;100.00;96001.09;5038973;28;20854;-71
2022/09/09 04:51:06;;;;;;;6.05;3.13;;;;;;;14.54;100.00;96002.72;5038492;28;20287;-71
2022/09/09 04:53:34;;;;;;;5.03;3.00;;;;;;;14.42;100.00;96007.84;5038347;28;20201;-71
2022/09/09 04:56:05;;;;;;;4.95;2.92;;;;;;;14.60;100.00;96007.16;5038331;28;20310;-72
2022/09/09 04:58:32;;;;;;;4.53;2.53;;;;;;;14.55;100.00;96006.97;5037952;28;20581;-72
2022/09/09 05:01:05;;;;;;;5.03;3.17;;;;;;;14.64;100.00;95996.75;5038102;28;20220;-72
2022/09/09 05:03:32;;;;;;;7.30;2.88;;;;;;;14.64;100.00;95996.75;5038036;28;20197;-72
2022/09/09 05:06:04;;;;;;;5.93;3.22;;;;;;;14.73;100.00;96013.28;5038215;28;20725;-72
2022/09/09 05:08:31;;;;;;;9.10;3.22;;;;;;;14.72;100.00;96011.66;5038277;28;20274;-72
2022/09/09 05:10:57;;;;;;;5.88;3.10;;;;;;;14.74;100.00;96002.47;5038333;28;20205;-72
2022/09/09 05:13:24;;;;;;;4.85;3.05;;;;;;;14.75;100.00;95995.31;5038298;28;20197;-72
2022/09/09 05:15:53;;;;;;;9.75;3.45;;;;;;;14.79;100.00;95992.03;5038037;28;20212;-72
2022/09/09 05:18:19;;;;;;;6.30;3.08;;;;;;;14.65;100.00;96010.84;5037870;28;20248;-72
2022/09/09 05:20:47;;;;;;;8.77;3.72;;;;;;;14.80;100.00;96012.25;5039190;28;20201;-72
2022/09/09 05:23:14;;;;;;;7.70;3.92;;;;;;;14.80;100.00;96009.59;5037557;28;20209;-72
2022/09/09 05:25:41;;;;;;;8.25;2.85;;;;;;;14.70;100.00;96019.81;5034437;28;20252;-72
2022/09/09 05:28:08;;;;;;;8.07;2.92;;;;;;;14.80;100.00;96014.91;5038159;28;20310;-72
2022/09/09 05:30:35;;;;;;;7.07;3.53;;;;;;;14.87;100.00;96005.06;5038687;28;20315;-72
2022/09/09 05:33:01;;;;;;;6.93;2.75;;;;;;;14.81;100.00;96008.53;5037323;28;20572;-72
2022/09/09 05:35:28;;;;;;;6.45;2.88;;;;;;;14.96;100.00;96014.44;5038117;28;21524;-72
2022/09/09 05:38:01;;;;;;;10.38;3.30;;;;;;;15.08;100.00;96022.56;5039340;28;20226;-72
2022/09/09 05:40:28;;;;;;;8.50;3.22;;;;;;;15.04;100.00;96027.47;5037248;28;20205;-72
2022/09/09 05:42:54;;;;;;;6.47;3.47;;;;;;;15.03;100.00;96019.72;5037098;28;20216;-72
2022/09/09 05:45:21;;;;;;;7.88;3.40;;;;;;;14.98;100.00;96023.00;5037762;28;20710;-72
2022/09/09 05:47:53;;;;;;;9.90;3.55;;;;;;;15.21;100.00;96033.16;5038050;28;20221;-71
2022/09/09 05:50:19;;;;;;;7.03;3.22;;;;;;;15.16;100.00;96031.13;5037780;28;20292;-72
2022/09/09 05:52:45;;;;;;;6.35;2.70;;;;;;;15.19;100.00;96029.88;5037161;28;20197;-72
2022/09/09 05:55:13;;;;;;;7.85;3.40;;;;;;;15.19;100.00;96030.69;5036918;28;20201;-72
2022/09/09 05:57:40;;;;;;;6.90;3.15;;;;;;;15.23;100.00;96025.81;5038283;28;20225;-72
2022/09/09 06:00:08;;;;;;;7.03;3.45;;;;;;;15.28;100.00;96026.81;5037112;28;20205;-73
2022/09/09 06:02:36;;;;;;;9.00;3.13;;;;;;;15.21;100.00;96020.72;5037011;28;20208;-73
2022/09/09 06:05:03;;;;;;;8.40;3.88;;;;;;;15.23;100.00;96016.00;5037755;28;20225;-72
2022/09/09 06:07:29;;;;;;;8.18;3.33;;;;;;;15.26;100.00;96011.09;5037368;28;20225;-73
2022/09/09 06:09:56;;;;;;;7.95;3.35;;;;;;;15.35;100.00;96014.28;5037212;28;20212;-73
2022/09/09 06:12:24;;;;;;;6.20;3.38;;;;;;;15.45;100.00;96019.97;5036469;28;20202;-72
2022/09/09 06:14:51;;;;;;;11.68;4.05;;;;;;;15.40;100.00;96006.50;5037405;28;20209;-73
2022/09/09 06:17:18;;;;;;;9.93;3.15;;;;;;;15.49;100.00;96016.69;5036718;28;20299;-72
2022/09/09 06:19:44;;;;;;;7.15;3.47;;;;;;;15.40;100.00;96011.81;5037862;28;20212;-73
2022/09/09 06:22:11;;;;;;;6.80;2.70;;;;;;;15.43;100.00;96016.72;5036061;28;20205;-73
2022/09/09 06:24:38;;;;;;;5.35;2.80;;;;;;;15.61;100.00;96014.19;5030789;28;20319;-72
2022/09/09 06:27:07;;;;;;;4.57;2.85;;;;;;;15.74;100.00;96012.25;5034353;28;20236;-73
2022/09/09 06:29:34;;;;;;;6.38;2.65;;;;;;;15.89;100.00;96000.28;5036729;28;20201;-73
2022/09/09 06:32:02;;;;;;;5.60;2.67;;;;;;;15.93;100.00;96008.66;5035343;28;20219;-72
2022/09/09 06:34:28;;;;;;;5.68;3.00;;;;;;;15.89;100.00;96005.59;5034333;28;20216;-73
2022/09/09 06:36:57;;;;;;;9.43;3.28;;;;;;;15.99;100.00;96007.81;5035607;28;20347;-73
2022/09/09 06:39:24;;;;;;;8.15;2.92;;;;;;;16.00;100.00;96012.91;5035274;28;20205;-73
2022/09/09 06:41:52;;;;;;;5.70;3.10;;;;;;;16.02;100.00;96008.16;5035649;28;20216;-73
2022/09/09 06:44:19;;;;;;;6.30;2.95;;;;;;;16.16;100.00;96016.88;5035054;28;20212;-72
2022/09/09 06:46:47;;;;;;;7.95;2.60;;;;;;;16.27;100.00;96030.31;5035745;28;20236;-73
2022/09/09 06:49:14;;;;;;;6.07;2.13;;;;;;;16.23;100.00;96033.56;5034538;28;20633;-73
2022/09/09 06:51:42;;;;;;;6.47;2.67;;;;;;;16.24;100.00;96038.69;5035875;28;20213;-72
2022/09/09 06:54:10;;;;;;;3.92;1.85;;;;;;;16.29;100.00;96036.22;5034732;28;20209;-73
2022/09/09 06:56:40;;;;;;;7.68;2.45;;;;;;;16.34;100.00;96039.03;5035989;28;20221;-72
2022/09/09 06:59:09;;;;;;;4.63;2.08;;;;;;;16.02;100.00;96034.75;5034594;28;20220;-72
2022/09/09 07:01:37;;;;;;;7.40;2.03;;;;;;;15.99;100.00;96042.34;5036078;28;20212;-72
2022/09/09 07:04:07;;;;;;;6.18;2.30;;;;;;;16.16;100.00;96044.25;5033740;28;20308;-73
2022/09/09 07:06:36;;;;;;;5.70;2.40;;;;;;;16.19;100.00;96046.50;5034852;28;20665;-72
2022/09/09 07:09:05;;;;;;;2.72;2.00;;;;;;;16.28;100.00;96039.09;5034139;28;20208;-73
2022/09/09 07:11:34;;;;;;;5.25;2.42;;;;;;;16.42;100.00;96038.78;5035847;28;20320;-72
2022/09/09 07:14:02;;;;;;;7.00;2.22;;;;;;;16.35;100.00;96026.56;5033549;28;20201;-74
2022/09/09 07:16:31;;;;;;;4.50;2.08;;;;;;;16.60;100.00;96033.50;5035649;28;20227;-73
2022/09/09 07:18:58;;;;;;;4.13;2.38;;;;;;;16.75;100.00;96025.97;5035856;28;20661;-69
2022/09/09 07:21:27;;;;;;;7.90;2.10;;;;;;;16.89;100.00;96024.81;5034811;28;20676;-70
2022/09/09 07:23:55;;;;;;;3.80;2.00;;;;;;;16.81;100.00;96030.44;5031678;28;20208;-70
2022/09/09 07:26:23;;;;;;;4.93;2.13;;;;;;;17.06;100.00;96031.22;5034659;28;21095;-72
2022/09/09 07:28:50;;;;;;;4.93;1.95;;;;;;;17.17;100.00;96029.44;5034407;28;20748;-72
2022/09/09 07:31:18;;;;;;;9.45;2.15;;;;;;;17.43;100.00;96025.69;5031474;28;20208;-72
2022/09/09 07:33:45;;;;;;;7.78;2.55;;;;;;;17.58;100.00;96023.41;5034273;28;20294;-72
2022/09/09 07:36:15;;;;;;;9.88;2.85;;;;;;;17.77;100.00;96031.16;5034617;28;20689;-73
2022/09/09 07:38:45;;;;;;;7.22;2.58;;;;;;;17.77;100.00;96033.84;5035047;28;20209;-72
2022/09/09 07:41:14;;;;;;;3.15;2.03;;;;;;;17.77;100.00;96041.81;5034954;28;20236;-72
2022/09/09 07:43:42;;;;;;;3.22;1.90;;;;;;;17.37;100.00;96038.00;5034866;28;20209;-72
2022/09/09 07:46:09;;;;;;;5.20;1.83;;;;;;;17.68;100.00;96043.19;5034682;28;20228;-72
2022/09/09 07:48:36;;;;;;;2.47;1.45;;;;;;;17.64;100.00;96047.31;5035505;28;20213;-73
2022/09/09 07:51:08;;;;;;;4.82;2.08;;;;;;;17.87;100.00;96045.56;5034417;28;20205;-72
2022/09/09 07:53:36;;;;;;;3.10;1.95;;;;;;;17.86;100.00;96056.47;5034584;28;20205;-72
2022/09/09 07:56:09;;;;;;;3.90;2.00;;;;;;;17.88;100.00;96062.38;5033629;28;20291;-73
2022/09/09 07:58:36;;;;;;;2.38;1.85;;;;;;;17.70;100.00;96058.94;5035059;28;20618;-72
2022/09/09 08:01:07;;;;;;;3.42;1.70;;;;;;;17.95;100.00;96058.59;5034198;28;20258;-73
2022/09/09 08:03:34;;;;;;;4.75;1.58;;;;;;;17.91;100.00;96062.75;5034477;28;20212;-74
2022/09/09 08:06:02;;;;;;;6.30;1.85;;;;;;;18.06;100.00;96057.00;5034200;28;20257;-74
2022/09/09 08:08:29;;;;;;;5.45;1.77;;;;;;;18.16;100.00;96055.38;5035111;28;20241;-72
2022/09/09 08:11:03;;;;;;;11.48;2.00;;;;;;;18.38;100.00;96056.53;5034475;28;20556;-72
2022/09/09 08:13:31;;;;;;;4.20;1.67;;;;;;;18.62;100.00;96055.53;5034403;28;20227;-72
2022/09/09 08:16:05;;;;;;;4.40;1.45;;;;;;;18.84;100.00;96059.25;5034682;28;20205;-72
2022/09/09 08:18:32;;;;;;;1.80;1.30;;;;;;;18.83;100.00;96058.44;5034536;28;20206;-73
2022/09/09 08:21:00;;;;;;;5.90;1.30;;;;;;;18.76;98.49;96057.75;5035467;28;20709;-72
2022/09/09 08:23:26;;;;;;;2.03;1.13;;;;;;;18.62;100.00;96058.19;5035045;28;20288;-72
2022/09/09 08:25:53;;;;;;;3.13;1.35;;;;;;;18.90;100.00;96050.31;5032927;28;20289;-71
2022/09/09 08:28:19;;;;;;;1.73;1.38;;;;;;;18.84;100.00;96060.06;5034939;28;20316;-72
2022/09/09 08:30:47;;;;;;;2.30;1.10;;;;;;;18.98;99.57;96056.94;5035093;28;20209;-72
2022/09/09 08:33:14;;;;;;;3.35;1.30;;;;;;;19.12;98.33;96053.00;5034703;28;20681;-71
2022/09/09 08:35:50;;;;;;;3.08;1.52;;;;;;;19.08;97.62;96051.84;5038339;28;20435;-70
2022/09/09 08:38:18;;;;;;;3.60;1.48;;;;;;;18.92;98.06;96054.38;5038368;28;20240;-70
2022/09/09 08:40:50;;;;;;;2.05;1.30;;;;;;;18.98;99.14;96064.16;5035613;28;20204;-70
2022/09/09 08:43:19;;;;;;;2.72;1.40;;;;;;;18.90;97.39;96063.66;5035994;28;20692;-71
2022/09/09 08:45:57;;;;;;;7.20;1.40;;;;;;;19.19;98.43;96063.56;5037999;28;21155;-70
2022/09/09 08:48:41;;;;;;;5.18;2.00;;;;;;;18.95;96.84;96061.91;5036593;28;20583;-70
2022/09/09 08:51:09;;;;;;;3.67;1.38;;;;;;;18.82;97.07;96062.16;5036290;28;20201;-71
2022/09/09 08:53:42;;;;;;;2.83;1.17;;;;;;;18.89;97.87;96057.53;5037501;28;20295;-69
2022/09/09 08:56:13;;;;;;;2.80;1.50;;;;;;;18.91;98.55;96059.97;5036602;28;20202;-72
2022/09/09 08:58:45;;;;;;;4.68;1.30;;;;;;;18.86;96.95;96060.63;5037777;28;20728;-72
2022/09/09 09:01:30;;;;;;;6.82;1.80;;;;;;;19.15;98.21;96067.75;5038066;28;20220;-70
2022/09/09 09:04:06;;;;;;;3.35;1.40;;;;;;;19.10;97.64;96075.66;5037607;28;20212;-72
2022/09/09 09:06:48;;;;;;;2.45;1.27;;;;;;;19.17;96.74;96057.63;5034572;28;20221;-70
2022/09/09 09:09:22;;;;;;;5.45;1.38;;;;;;;19.42;96.64;96066.22;5036863;28;20200;-70
2022/09/09 09:11:52;;;;;;;2.55;1.40;;;;;;;19.35;95.90;96063.66;5037648;28;20282;-72
2022/09/09 09:14:23;;;;;;;3.58;1.60;;;;;;;19.44;96.50;96064.13;5036279;28;20205;-70
2022/09/09 09:16:55;;;;;;;5.93;1.55;;;;;;;19.79;98.63;96066.47;5036890;28;20231;-69
2022/09/09 09:19:25;;;;;;;3.08;1.13;;;;;;;19.77;93.06;96070.44;5037091;28;20220;-69
2022/09/09 09:21:58;;;;;;;4.63;1.30;;;;;;;19.71;92.61;96064.16;5036138;28;20673;-69
2022/09/09 09:24:32;;;;;;;4.95;1.50;;;;;;;19.80;93.19;96056.59;5037129;28;20206;-70
2022/09/09 09:27:01;;;;;;;6.35;1.23;;;;;;;19.49;95.63;96064.22;5036800;28;20239;-70
2022/09/09 09:29:27;;;;;;;4.03;1.50;;;;;;;19.80;95.01;96062.72;5036937;28;20205;-70
2022/09/09 09:32:00;;;;;;;1.85;1.40;;;;;;;19.69;93.43;96063.59;5038406;28;20202;-69
2022/09/09 09:34:28;;;;;;;3.03;1.38;;;;;;;19.63;92.18;96061.84;5033772;28;20729;-69
2022/09/09 09:36:58;;;;;;;5.65;1.50;;;;;;;19.70;93.85;96059.88;5037824;28;20221;-73
2022/09/09 09:39:27;;;;;;;5.72;1.67;;;;;;;19.98;93.31;96059.09;5037307;28;20197;-73
2022/09/09 09:41:54;;;;;;;4.78;1.30;;;;;;;19.75;90.89;96059.16;5038929;28;20562;-72
2022/09/09 09:44:24;;;;;;;2.75;1.38;;;;;;;19.78;91.62;96058.66;5036228;28;20220;-70
2022/09/09 09:46:51;;;;;;;2.33;1.10;;;;;;;19.90;91.64;96052.22;5038271;28;20225;-69
2022/09/09 09:49:19;;;;;;;4.50;1.30;;;;;;;20.11;90.83;96054.28;5037633;28;20209;-70
2022/09/09 09:51:46;;;;;;;3.90;1.38;;;;;;;20.23;90.40;96052.34;5038158;28;20294;-70
2022/09/09 09:54:22;;;;;;;2.97;1.13;;;;;;;20.58;86.65;96055.63;5036849;28;20614;-73
2022/09/09 09:56:49;;;;;;;6.15;1.60;;;;;;;20.71;88.39;96057.97;5034390;28;20229;-72
2022/09/09 09:59:35;;;;;;;29.20;9.07;;;;;;;21.23;86.67;96039.56;5037194;28;20209;-73
2022/09/09 10:02:24;;;;;;;4.75;1.30;;;;;;;21.40;80.64;96045.66;5037632;28;20209;-72
2022/09/09 10:05:04;;;;;;;7.20;1.13;;;;;;;21.53;78.81;96050.69;5033392;28;20662;-74
2022/09/09 10:07:32;;;;;;;3.88;1.20;;;;;;;21.43;81.21;96042.47;5036273;28;20225;-71
2022/09/09 10:09:58;;;;;;;6.22;1.27;;;;;;;21.63;82.03;96045.47;5036862;28;20275;-71
2022/09/09 10:12:44;;;;;;;3.20;0.90;;;;;;;21.53;80.61;96053.38;5035067;28;20201;-73
2022/09/09 10:15:31;;;;;;;3.85;1.15;;;;;;;21.43;78.75;96040.63;5035462;28;20290;-71
2022/09/09 10:18:04;;;;;;;3.30;0.80;;;;;;;21.28;79.36;96042.28;5035521;28;20222;-72
2022/09/09 10:20:40;;;;;;;2.28;0.70;;;;;;;21.24;76.30;96035.78;5035668;28;20396;-75
2022/09/09 10:23:20;;;;;;;3.53;0.63;;;;;;;21.23;77.03;96044.06;5034912;28;20221;-71
2022/09/09 10:26:04;;;;;;;1.92;0.80;;;;;;;21.29;75.91;96045.78;5035238;28;20574;-74
2022/09/09 10:28:47;;;;;;;1.80;0.68;;;;;;;21.20;76.97;96040.03;5035597;28;20288;-73
2022/09/09 10:31:24;;;;;;;4.90;0.77;;;;;;;21.42;72.63;96039.00;5035367;28;20205;-73
2022/09/09 10:33:52;;;;;;;4.55;0.93;;;;;;;21.51;71.43;96034.03;5034371;28;20235;-70
2022/09/09 10:36:24;;;;;;;2.05;0.70;;;;;;;21.72;72.71;96027.88;5036246;28;20232;-72
2022/09/09 10:38:58;;;;;;;3.67;0.70;;;;;;;21.69;68.09;96034.53;5037295;28;20299;-70
2022/09/09 10:41:43;;;;;;;1.70;0.70;;;;;;;21.67;65.80;96025.13;5037863;28;20205;-75
2022/09/09 10:44:34;;;;;;;1.95;0.65;;;;;;;21.98;65.95;96022.53;5036155;28;20775;-71
2022/09/09 10:47:20;;;;;;;3.08;0.70;;;;;;;21.93;68.73;96021.66;5037342;28;20225;-71
2022/09/09 10:50:04;;;;;;;4.72;0.70;;;;;;;22.28;63.80;96018.31;5036588;28;21072;-70
2022/09/09 10:52:56;;;;;;;3.50;0.82;;;;;;;22.23;64.29;96031.66;5036037;28;20201;-74
2022/09/09 10:55:27;;;;;;;1.27;0.60;;;;;;;21.85;63.22;96027.47;5036394;28;20205;-72
2022/09/09 10:57:57;;;;;;;0.80;0.50;;;;;;;21.90;64.12;96024.84;5032727;28;20324;-71
2022/09/09 11:00:26;;;;;;;4.35;0.80;;;;;;;22.39;70.09;96014.66;5036907;28;20209;-71
2022/09/09 11:02:56;;;;;;;0.73;0.65;;;;;;;22.32;61.22;96022.09;5035801;28;20271;-74
2022/09/09 11:05:29;;;;;;;7.47;0.70;;;;;;;22.63;62.62;96026.66;5037496;28;20204;-73
2022/09/09 11:08:00;;;;;;;2.15;0.57;;;;;;;22.51;61.67;96017.19;5036562;28;20239;-72
2022/09/09 11:10:37;;;;;;;3.25;0.57;;;;;;;22.68;60.31;96013.28;5037117;28;20205;-73
2022/09/09 11:13:11;;;;;;;2.42;0.70;;;;;;;22.24;64.72;96005.63;5035560;28;20201;-71
2022/09/09 11:15:43;;;;;;;2.47;0.80;;;;;;;22.55;64.52;96008.34;5036254;28;20200;-71
2022/09/09 11:18:15;;;;;;;3.67;0.77;;;;;;;22.82;69.25;96009.91;5036444;28;20583;-74
2022/09/09 11:20:42;;;;;;;1.60;0.60;;;;;;;22.92;61.51;96011.84;5036318;28;20676;-73
2022/09/09 11:23:16;;;;;;;1.50;0.57;;;;;;;22.76;58.03;96010.13;5034692;28;20205;-75
2022/09/09 11:25:47;;;;;;;1.17;0.70;;;;;;;22.88;62.96;96003.50;5036510;28;20201;-73
2022/09/09 11:28:29;;;;;;;1.38;0.55;;;;;;;23.18;61.46;96017.16;5034772;28;20228;-73
2022/09/09 11:31:14;;;;;;;2.85;0.70;;;;;;;23.24;62.53;96009.94;5035169;28;20200;-75
2022/09/09 11:33:59;;;;;;;1.90;0.65;;;;;;;23.63;60.08;96004.75;5036083;28;20212;-71
2022/09/09 11:36:53;;;;;;;1.15;0.60;;;;;;;23.51;59.83;96004.16;5036342;28;20224;-72
2022/09/09 11:39:51;;;;;;;1.58;0.50;;;;;;;23.58;59.43;95999.34;5036074;28;20263;-72
2022/09/09 11:42:20;;;;;;;0.93;0.60;;;;;;;23.52;59.87;95988.81;5035282;28;20219;-72
2022/09/09 11:44:47;;;;;;;0.57;0.43;;;;;;;23.10;55.46;95990.75;5036288;28;20209;-74